TAP1639 GMMN-LPPT
Flight info
| Callsign | TAP1639 |
|---|---|
| Flight time | 0h 58m |
| Altitude | 38000 |
| Route | LAKAM UR722 AMSEL DCT VATZI |
| Aircraft | A320/M-SDE3FGHIRWY/LB1 |
Departure
| Time | 2026-05-07 16:18 |
|---|---|
| Airport | Mohammed V International Airport (GMMN) |
Arrival
| Time | 2026-05-07 17:16 |
|---|---|
| Airport | Lisbon Humberto Delgado Airport (LPPT) |
| Time | Latitude | Longitude | Altitude | Speed | Heading |
|---|---|---|---|---|---|
| 2026-05-07 15:35 | 33.37563 | -7.58333 | 653 ft | 0 kts | 78° |
| 2026-05-07 16:00 | 33.37559 | -7.58355 | 655 ft | 3 kts | 77° |
| 2026-05-07 16:01 | 33.37554 | -7.58383 | 653 ft | 3 kts | 77° |
| 2026-05-07 16:01 | 33.37550 | -7.58406 | 653 ft | 3 kts | 96° |
| 2026-05-07 16:01 | 33.37559 | -7.58423 | 653 ft | 3 kts | 160° |
| 2026-05-07 16:01 | 33.37580 | -7.58432 | 653 ft | 3 kts | 165° |
| 2026-05-07 16:02 | 33.37595 | -7.58435 | 653 ft | 0 kts | 169° |
| 2026-05-07 16:07 | 33.37571 | -7.58427 | 653 ft | 5 kts | 161° |
| 2026-05-07 16:08 | 33.37542 | -7.58416 | 653 ft | 4 kts | 164° |
| 2026-05-07 16:08 | 33.37517 | -7.58407 | 654 ft | 4 kts | 164° |
| 2026-05-07 16:08 | 33.37483 | -7.58396 | 653 ft | 7 kts | 165° |
| 2026-05-07 16:08 | 33.37439 | -7.58381 | 655 ft | 6 kts | 165° |
| 2026-05-07 16:09 | 33.37400 | -7.58369 | 653 ft | 7 kts | 165° |
| 2026-05-07 16:09 | 33.37335 | -7.58348 | 653 ft | 11 kts | 164° |
| 2026-05-07 16:09 | 33.37267 | -7.58326 | 653 ft | 9 kts | 164° |
| 2026-05-07 16:09 | 33.37206 | -7.58305 | 653 ft | 11 kts | 164° |
| 2026-05-07 16:10 | 33.37134 | -7.58281 | 653 ft | 10 kts | 164° |
| 2026-05-07 16:10 | 33.37073 | -7.58261 | 653 ft | 9 kts | 165° |
| 2026-05-07 16:10 | 33.37018 | -7.58243 | 653 ft | 8 kts | 165° |
| 2026-05-07 16:10 | 33.36969 | -7.58227 | 656 ft | 7 kts | 165° |
| 2026-05-07 16:11 | 33.36941 | -7.58252 | 653 ft | 7 kts | 252° |
| 2026-05-07 16:11 | 33.36925 | -7.58322 | 655 ft | 9 kts | 255° |
| 2026-05-07 16:11 | 33.36909 | -7.58391 | 653 ft | 10 kts | 255° |
| 2026-05-07 16:11 | 33.36855 | -7.58460 | 653 ft | 15 kts | 183° |
| 2026-05-07 16:12 | 33.36760 | -7.58432 | 653 ft | 15 kts | 164° |
| 2026-05-07 16:12 | 33.36655 | -7.58396 | 654 ft | 15 kts | 163° |
| 2026-05-07 16:12 | 33.36559 | -7.58363 | 653 ft | 15 kts | 164° |
| 2026-05-07 16:12 | 33.36456 | -7.58328 | 653 ft | 15 kts | 164° |
| 2026-05-07 16:13 | 33.36364 | -7.58297 | 652 ft | 13 kts | 164° |
| 2026-05-07 16:13 | 33.36273 | -7.58266 | 652 ft | 16 kts | 163° |
| 2026-05-07 16:13 | 33.36155 | -7.58224 | 652 ft | 19 kts | 163° |
| 2026-05-07 16:13 | 33.36020 | -7.58177 | 653 ft | 21 kts | 164° |
| 2026-05-07 16:14 | 33.35890 | -7.58133 | 652 ft | 17 kts | 164° |
| 2026-05-07 16:14 | 33.35785 | -7.58099 | 652 ft | 15 kts | 164° |
| 2026-05-07 16:14 | 33.35691 | -7.58067 | 652 ft | 13 kts | 164° |
| 2026-05-07 16:14 | 33.35605 | -7.58037 | 652 ft | 14 kts | 163° |
| 2026-05-07 16:15 | 33.35518 | -7.58007 | 652 ft | 15 kts | 165° |
| 2026-05-07 16:15 | 33.35411 | -7.57971 | 652 ft | 15 kts | 164° |
| 2026-05-07 16:15 | 33.35315 | -7.57943 | 653 ft | 13 kts | 181° |
| 2026-05-07 16:15 | 33.35254 | -7.58007 | 653 ft | 14 kts | 252° |
| 2026-05-07 16:16 | 33.35226 | -7.58123 | 653 ft | 14 kts | 254° |
| 2026-05-07 16:16 | 33.35205 | -7.58229 | 654 ft | 12 kts | 261° |
| 2026-05-07 16:16 | 33.35260 | -7.58276 | 656 ft | 6 kts | 343° |
| 2026-05-07 16:16 | 33.35270 | -7.58280 | 654 ft | 0 kts | 343° |
| 2026-05-07 16:17 | 33.35320 | -7.58298 | 654 ft | 33 kts | 343° |
| 2026-05-07 16:17 | 33.35780 | -7.58455 | 647 ft | 102 kts | 344° |
| 2026-05-07 16:18 | 33.36638 | -7.58748 | 652 ft | 151 kts | 343° |
| 2026-05-07 16:18 | 33.37749 | -7.59117 | 960 ft | 168 kts | 345° |
| 2026-05-07 16:18 | 33.38877 | -7.59502 | 1637 ft | 167 kts | 345° |
| 2026-05-07 16:18 | 33.40017 | -7.59890 | 2177 ft | 178 kts | 342° |
| 2026-05-07 16:19 | 33.41230 | -7.60514 | 2459 ft | 203 kts | 332° |
| 2026-05-07 16:19 | 33.42474 | -7.61530 | 2868 ft | 227 kts | 320° |
| 2026-05-07 16:19 | 33.43579 | -7.62905 | 3587 ft | 237 kts | 308° |
| 2026-05-07 16:19 | 33.44523 | -7.64554 | 4422 ft | 242 kts | 304° |
| 2026-05-07 16:20 | 33.45471 | -7.66257 | 5276 ft | 247 kts | 303° |
| 2026-05-07 16:20 | 33.46431 | -7.67978 | 6136 ft | 250 kts | 303° |
| 2026-05-07 16:20 | 33.47409 | -7.69727 | 6719 ft | 256 kts | 302° |
| 2026-05-07 16:20 | 33.48397 | -7.71504 | 6896 ft | 258 kts | 302° |
| 2026-05-07 16:21 | 33.49389 | -7.73294 | 6936 ft | 257 kts | 302° |
| 2026-05-07 16:21 | 33.50380 | -7.75085 | 6943 ft | 258 kts | 302° |
| 2026-05-07 16:21 | 33.51372 | -7.76873 | 6942 ft | 257 kts | 302° |
| 2026-05-07 16:21 | 33.52373 | -7.78636 | 6946 ft | 267 kts | 307° |
| 2026-05-07 16:22 | 33.53884 | -7.80045 | 7508 ft | 284 kts | 335° |
| 2026-05-07 16:22 | 33.55842 | -7.80501 | 8287 ft | 292 kts | 1° |
| 2026-05-07 16:22 | 33.57887 | -7.80323 | 9091 ft | 297 kts | 4° |
| 2026-05-07 16:22 | 33.59961 | -7.80102 | 9900 ft | 301 kts | 4° |
| 2026-05-07 16:23 | 33.62106 | -7.79864 | 10380 ft | 320 kts | 4° |
| 2026-05-07 16:23 | 33.64373 | -7.79616 | 10632 ft | 342 kts | 4° |
| 2026-05-07 16:23 | 33.66810 | -7.79352 | 11091 ft | 356 kts | 3° |
| 2026-05-07 16:23 | 33.69307 | -7.79084 | 11783 ft | 361 kts | 3° |
| 2026-05-07 16:24 | 33.71827 | -7.78814 | 12480 ft | 365 kts | 3° |
| 2026-05-07 16:24 | 33.74356 | -7.78551 | 13137 ft | 370 kts | 2° |
| 2026-05-07 16:24 | 33.76943 | -7.78283 | 13802 ft | 377 kts | 2° |
| 2026-05-07 16:24 | 33.79569 | -7.78014 | 14498 ft | 379 kts | 1° |
| 2026-05-07 16:25 | 33.82201 | -7.77746 | 14836 ft | 381 kts | 2° |
| 2026-05-07 16:25 | 33.84853 | -7.77458 | 14932 ft | 381 kts | 1° |
| 2026-05-07 16:25 | 33.87525 | -7.77170 | 15360 ft | 387 kts | 1° |
| 2026-05-07 16:25 | 33.90205 | -7.76883 | 16027 ft | 388 kts | 1° |
| 2026-05-07 16:26 | 33.92867 | -7.76600 | 16583 ft | 390 kts | 1° |
| 2026-05-07 16:26 | 33.95599 | -7.76302 | 17115 ft | 395 kts | 1° |
| 2026-05-07 16:26 | 33.98343 | -7.76003 | 17672 ft | 399 kts | 1° |
| 2026-05-07 16:26 | 34.00225 | -7.75801 | 18046 ft | 401 kts | 0° |
| 2026-05-07 16:27 | 34.03935 | -7.75401 | 18782 ft | 406 kts | 0° |
| 2026-05-07 16:27 | 34.06771 | -7.75097 | 19317 ft | 409 kts | 360° |
| 2026-05-07 16:27 | 34.09623 | -7.74796 | 19830 ft | 413 kts | 0° |
| 2026-05-07 16:27 | 34.12503 | -7.74496 | 20327 ft | 415 kts | 360° |
| 2026-05-07 16:28 | 34.15400 | -7.74197 | 20808 ft | 419 kts | 360° |
| 2026-05-07 16:28 | 34.18282 | -7.73920 | 21283 ft | 421 kts | 357° |
| 2026-05-07 16:28 | 34.21200 | -7.74001 | 21744 ft | 420 kts | 351° |
| 2026-05-07 16:28 | 34.24143 | -7.74196 | 22217 ft | 423 kts | 351° |
| 2026-05-07 16:29 | 34.27087 | -7.74403 | 22694 ft | 425 kts | 351° |
| 2026-05-07 16:29 | 34.30055 | -7.74616 | 23135 ft | 428 kts | 351° |
| 2026-05-07 16:29 | 34.33044 | -7.74825 | 23570 ft | 431 kts | 351° |
| 2026-05-07 16:29 | 34.36051 | -7.75032 | 23986 ft | 433 kts | 351° |
| 2026-05-07 16:30 | 34.39034 | -7.75238 | 24383 ft | 435 kts | 351° |
| 2026-05-07 16:30 | 34.42070 | -7.75452 | 24791 ft | 438 kts | 351° |
| 2026-05-07 16:30 | 34.45110 | -7.75668 | 25198 ft | 439 kts | 351° |
| 2026-05-07 16:30 | 34.48174 | -7.75882 | 25589 ft | 441 kts | 351° |
| 2026-05-07 16:31 | 34.51255 | -7.76092 | 25978 ft | 443 kts | 351° |
| 2026-05-07 16:31 | 34.54338 | -7.76305 | 26370 ft | 444 kts | 351° |
| 2026-05-07 16:31 | 34.57438 | -7.76522 | 26736 ft | 446 kts | 351° |
| 2026-05-07 16:31 | 34.60547 | -7.76742 | 27101 ft | 447 kts | 351° |
| 2026-05-07 16:32 | 34.63670 | -7.76963 | 27480 ft | 449 kts | 351° |
| 2026-05-07 16:32 | 34.66799 | -7.77180 | 27841 ft | 451 kts | 351° |
| 2026-05-07 16:32 | 34.69902 | -7.77394 | 28186 ft | 452 kts | 351° |
| 2026-05-07 16:32 | 34.73063 | -7.77611 | 28511 ft | 454 kts | 351° |
| 2026-05-07 16:33 | 34.76222 | -7.77832 | 28830 ft | 455 kts | 350° |
| 2026-05-07 16:33 | 34.79393 | -7.78081 | 29137 ft | 456 kts | 350° |
| 2026-05-07 16:33 | 34.82571 | -7.78351 | 29428 ft | 457 kts | 349° |
| 2026-05-07 16:33 | 34.85707 | -7.78630 | 29700 ft | 459 kts | 349° |
| 2026-05-07 16:34 | 34.88899 | -7.78914 | 29995 ft | 460 kts | 349° |
| 2026-05-07 16:34 | 34.92105 | -7.79200 | 30258 ft | 461 kts | 349° |
| 2026-05-07 16:34 | 34.95327 | -7.79477 | 30571 ft | 462 kts | 349° |
| 2026-05-07 16:34 | 34.98541 | -7.79745 | 30968 ft | 460 kts | 349° |
| 2026-05-07 16:35 | 35.01733 | -7.80005 | 31353 ft | 459 kts | 349° |
| 2026-05-07 16:35 | 35.04878 | -7.80260 | 31747 ft | 457 kts | 349° |
| 2026-05-07 16:35 | 35.08041 | -7.80520 | 32127 ft | 455 kts | 349° |
| 2026-05-07 16:35 | 35.11191 | -7.80782 | 32494 ft | 452 kts | 349° |
| 2026-05-07 16:36 | 35.14330 | -7.81045 | 32826 ft | 451 kts | 349° |
| 2026-05-07 16:36 | 35.17468 | -7.81308 | 33185 ft | 450 kts | 349° |
| 2026-05-07 16:36 | 35.20586 | -7.81568 | 33526 ft | 447 kts | 348° |
| 2026-05-07 16:36 | 35.23652 | -7.81823 | 33828 ft | 445 kts | 348° |
| 2026-05-07 16:37 | 35.26750 | -7.82081 | 33914 ft | 445 kts | 348° |
| 2026-05-07 16:37 | 35.32913 | -7.82608 | 33924 ft | 444 kts | 348° |
| 2026-05-07 16:38 | 35.39071 | -7.83133 | 33925 ft | 443 kts | 348° |
| 2026-05-07 16:38 | 35.45217 | -7.83657 | 33925 ft | 440 kts | 348° |
| 2026-05-07 16:39 | 35.51280 | -7.84205 | 33924 ft | 440 kts | 347° |
| 2026-05-07 16:39 | 35.57384 | -7.84773 | 33924 ft | 439 kts | 347° |
| 2026-05-07 16:40 | 35.63501 | -7.85338 | 33927 ft | 440 kts | 347° |
| 2026-05-07 16:40 | 35.69606 | -7.85884 | 33924 ft | 440 kts | 348° |
| 2026-05-07 16:41 | 35.75696 | -7.86431 | 33925 ft | 440 kts | 348° |
| 2026-05-07 16:41 | 35.81726 | -7.87308 | 33925 ft | 426 kts | 334° |
| 2026-05-07 16:42 | 35.87054 | -7.90108 | 33911 ft | 413 kts | 324° |
| 2026-05-07 16:42 | 35.92250 | -7.93251 | 33907 ft | 418 kts | 329° |
| 2026-05-07 16:43 | 35.96729 | -7.95563 | 33902 ft | 419 kts | 330° |
| 2026-05-07 16:43 | 36.02129 | -7.98343 | 33902 ft | 419 kts | 329° |
| 2026-05-07 16:44 | 36.07465 | -8.01206 | 33907 ft | 419 kts | 329° |
| 2026-05-07 16:44 | 36.12787 | -8.04133 | 33911 ft | 421 kts | 328° |
| 2026-05-07 16:45 | 36.18138 | -8.07082 | 33924 ft | 420 kts | 329° |
| 2026-05-07 16:45 | 36.23494 | -8.10016 | 33926 ft | 419 kts | 328° |
| 2026-05-07 16:46 | 36.28836 | -8.12956 | 33934 ft | 420 kts | 328° |
| 2026-05-07 16:46 | 36.34155 | -8.15885 | 33932 ft | 420 kts | 328° |
| 2026-05-07 16:47 | 36.39502 | -8.18824 | 33931 ft | 419 kts | 328° |
| 2026-05-07 16:47 | 36.44833 | -8.21774 | 33927 ft | 419 kts | 328° |
| 2026-05-07 16:48 | 36.50141 | -8.24711 | 33927 ft | 419 kts | 328° |
| 2026-05-07 16:48 | 36.55476 | -8.27667 | 33924 ft | 420 kts | 328° |
| 2026-05-07 16:49 | 36.60808 | -8.30621 | 33921 ft | 420 kts | 328° |
| 2026-05-07 16:49 | 36.66150 | -8.33580 | 33921 ft | 420 kts | 328° |
| 2026-05-07 16:50 | 36.71488 | -8.36549 | 33920 ft | 419 kts | 328° |
| 2026-05-07 16:50 | 36.76813 | -8.39509 | 33914 ft | 419 kts | 328° |
| 2026-05-07 16:51 | 36.82135 | -8.42473 | 33910 ft | 419 kts | 328° |
| 2026-05-07 16:51 | 36.87433 | -8.45427 | 33910 ft | 419 kts | 328° |
| 2026-05-07 16:52 | 36.92767 | -8.48418 | 33909 ft | 419 kts | 328° |
| 2026-05-07 16:52 | 36.98098 | -8.51405 | 33910 ft | 419 kts | 328° |
| 2026-05-07 16:53 | 37.03398 | -8.54374 | 33838 ft | 418 kts | 328° |
| 2026-05-07 16:53 | 37.06058 | -8.55862 | 33294 ft | 415 kts | 328° |
| 2026-05-07 16:53 | 37.08705 | -8.57351 | 33039 ft | 419 kts | 328° |
| 2026-05-07 16:53 | 37.11372 | -8.58858 | 32797 ft | 421 kts | 328° |
| 2026-05-07 16:54 | 37.14057 | -8.60378 | 32547 ft | 423 kts | 329° |
| 2026-05-07 16:54 | 37.16724 | -8.61887 | 32299 ft | 425 kts | 329° |
| 2026-05-07 16:54 | 37.19418 | -8.63408 | 32053 ft | 426 kts | 329° |
| 2026-05-07 16:54 | 37.22145 | -8.64944 | 31801 ft | 427 kts | 329° |
| 2026-05-07 16:55 | 37.24858 | -8.66472 | 31412 ft | 425 kts | 329° |
| 2026-05-07 16:55 | 37.27535 | -8.67974 | 30610 ft | 419 kts | 329° |
| 2026-05-07 16:55 | 37.30155 | -8.69445 | 29791 ft | 416 kts | 330° |
| 2026-05-07 16:55 | 37.32787 | -8.70933 | 29008 ft | 413 kts | 330° |
| 2026-05-07 16:56 | 37.35395 | -8.72409 | 28233 ft | 409 kts | 330° |
| 2026-05-07 16:56 | 37.37978 | -8.73873 | 27451 ft | 405 kts | 330° |
| 2026-05-07 16:56 | 37.43076 | -8.76771 | 25886 ft | 397 kts | 330° |
| 2026-05-07 16:57 | 37.45595 | -8.78211 | 25215 ft | 397 kts | 331° |
| 2026-05-07 16:57 | 37.48066 | -8.79621 | 24509 ft | 393 kts | 331° |
| 2026-05-07 16:57 | 37.50551 | -8.81038 | 23929 ft | 391 kts | 331° |
| 2026-05-07 16:57 | 37.53034 | -8.82453 | 23342 ft | 388 kts | 331° |
| 2026-05-07 16:58 | 37.55489 | -8.83854 | 22785 ft | 385 kts | 331° |
| 2026-05-07 16:58 | 37.57927 | -8.85248 | 22269 ft | 382 kts | 331° |
| 2026-05-07 16:58 | 37.60329 | -8.86533 | 21685 ft | 378 kts | 337° |
| 2026-05-07 16:58 | 37.62849 | -8.87555 | 21125 ft | 378 kts | 338° |
| 2026-05-07 16:59 | 37.65347 | -8.88562 | 20630 ft | 375 kts | 338° |
| 2026-05-07 16:59 | 37.67826 | -8.89563 | 20150 ft | 373 kts | 338° |
| 2026-05-07 16:59 | 37.70304 | -8.90567 | 19683 ft | 371 kts | 338° |
| 2026-05-07 16:59 | 37.72731 | -8.91554 | 19225 ft | 369 kts | 338° |
| 2026-05-07 17:00 | 37.75171 | -8.92530 | 18769 ft | 366 kts | 339° |
| 2026-05-07 17:00 | 37.77620 | -8.93384 | 18182 ft | 364 kts | 342° |
| 2026-05-07 17:00 | 37.80078 | -8.94136 | 17569 ft | 362 kts | 343° |
| 2026-05-07 17:00 | 37.82529 | -8.94834 | 16984 ft | 359 kts | 343° |
| 2026-05-07 17:01 | 37.84969 | -8.95522 | 16393 ft | 356 kts | 344° |
| 2026-05-07 17:01 | 37.87348 | -8.96210 | 15791 ft | 353 kts | 344° |
| 2026-05-07 17:01 | 37.89732 | -8.96916 | 15180 ft | 350 kts | 344° |
| 2026-05-07 17:01 | 37.92093 | -8.97627 | 14579 ft | 348 kts | 344° |
| 2026-05-07 17:02 | 37.94457 | -8.98343 | 13981 ft | 344 kts | 344° |
| 2026-05-07 17:02 | 37.96758 | -8.99046 | 13387 ft | 344 kts | 344° |
| 2026-05-07 17:02 | 37.99089 | -8.99763 | 12954 ft | 346 kts | 345° |
| 2026-05-07 17:02 | 38.01420 | -9.00478 | 12582 ft | 341 kts | 345° |
| 2026-05-07 17:03 | 38.03730 | -9.01183 | 12125 ft | 341 kts | 345° |
| 2026-05-07 17:03 | 38.06031 | -9.01883 | 11700 ft | 339 kts | 346° |
| 2026-05-07 17:03 | 38.08312 | -9.02580 | 11264 ft | 336 kts | 346° |
| 2026-05-07 17:03 | 38.10577 | -9.03273 | 10813 ft | 334 kts | 346° |
| 2026-05-07 17:04 | 38.12786 | -9.03949 | 10456 ft | 323 kts | 346° |
| 2026-05-07 17:04 | 38.14922 | -9.04601 | 10267 ft | 305 kts | 345° |
| 2026-05-07 17:04 | 38.16924 | -9.05215 | 10140 ft | 283 kts | 346° |
| 2026-05-07 17:04 | 38.18769 | -9.05773 | 9999 ft | 269 kts | 346° |
| 2026-05-07 17:05 | 38.20570 | -9.06317 | 9657 ft | 263 kts | 346° |
| 2026-05-07 17:05 | 38.22339 | -9.06857 | 9177 ft | 261 kts | 345° |
| 2026-05-07 17:05 | 38.24103 | -9.07399 | 8752 ft | 259 kts | 346° |
| 2026-05-07 17:05 | 38.25856 | -9.07937 | 8243 ft | 258 kts | 345° |
| 2026-05-07 17:06 | 38.27591 | -9.08469 | 7736 ft | 255 kts | 345° |
| 2026-05-07 17:06 | 38.29309 | -9.08997 | 7222 ft | 252 kts | 345° |
| 2026-05-07 17:06 | 38.30984 | -9.09517 | 6946 ft | 250 kts | 345° |
| 2026-05-07 17:06 | 38.32626 | -9.10211 | 6906 ft | 248 kts | 326° |
| 2026-05-07 17:07 | 38.33799 | -9.11766 | 6911 ft | 243 kts | 294° |
| 2026-05-07 17:07 | 38.34137 | -9.13846 | 6922 ft | 241 kts | 263° |
| 2026-05-07 17:07 | 38.33849 | -9.15949 | 6925 ft | 240 kts | 257° |
| 2026-05-07 17:07 | 38.33537 | -9.18052 | 6920 ft | 242 kts | 263° |
| 2026-05-07 17:08 | 38.33716 | -9.20174 | 6912 ft | 244 kts | 289° |
| 2026-05-07 17:08 | 38.34620 | -9.21967 | 6919 ft | 247 kts | 316° |
| 2026-05-07 17:08 | 38.36106 | -9.23053 | 6914 ft | 250 kts | 345° |
| 2026-05-07 17:08 | 38.37841 | -9.23253 | 6911 ft | 251 kts | 358° |
| 2026-05-07 17:09 | 38.39594 | -9.23285 | 6728 ft | 251 kts | 358° |
| 2026-05-07 17:09 | 38.41322 | -9.23314 | 6392 ft | 249 kts | 359° |
| 2026-05-07 17:09 | 38.43057 | -9.23346 | 6212 ft | 246 kts | 358° |
| 2026-05-07 17:09 | 38.44750 | -9.23378 | 5881 ft | 246 kts | 358° |
| 2026-05-07 17:10 | 38.46463 | -9.23408 | 5541 ft | 244 kts | 358° |
| 2026-05-07 17:10 | 38.48168 | -9.23440 | 5207 ft | 243 kts | 358° |
| 2026-05-07 17:10 | 38.49853 | -9.23476 | 4898 ft | 242 kts | 358° |
| 2026-05-07 17:10 | 38.51528 | -9.23510 | 4691 ft | 241 kts | 357° |
| 2026-05-07 17:11 | 38.53200 | -9.23549 | 4444 ft | 239 kts | 357° |
| 2026-05-07 17:11 | 38.54844 | -9.23586 | 4205 ft | 238 kts | 357° |
| 2026-05-07 17:11 | 38.56508 | -9.23619 | 4043 ft | 238 kts | 357° |
| 2026-05-07 17:11 | 38.58154 | -9.23654 | 3999 ft | 230 kts | 356° |
| 2026-05-07 17:12 | 38.59710 | -9.23410 | 3851 ft | 225 kts | 18° |
| 2026-05-07 17:12 | 38.61151 | -9.22665 | 3592 ft | 222 kts | 20° |
| 2026-05-07 17:12 | 38.62540 | -9.21917 | 3313 ft | 216 kts | 20° |
| 2026-05-07 17:12 | 38.63921 | -9.21175 | 3024 ft | 212 kts | 20° |
| 2026-05-07 17:13 | 38.65263 | -9.20461 | 2756 ft | 207 kts | 20° |
| 2026-05-07 17:13 | 38.66576 | -9.19760 | 2505 ft | 198 kts | 19° |
| 2026-05-07 17:13 | 38.67804 | -9.19106 | 2224 ft | 185 kts | 19° |
| 2026-05-07 17:13 | 38.68937 | -9.18500 | 1999 ft | 170 kts | 18° |
| 2026-05-07 17:14 | 38.69984 | -9.17946 | 1786 ft | 160 kts | 19° |
| 2026-05-07 17:14 | 38.70994 | -9.17408 | 1576 ft | 154 kts | 18° |
| 2026-05-07 17:14 | 38.71968 | -9.16888 | 1373 ft | 149 kts | 18° |
| 2026-05-07 17:14 | 38.72919 | -9.16379 | 1183 ft | 148 kts | 18° |
| 2026-05-07 17:15 | 38.73868 | -9.15872 | 981 ft | 146 kts | 19° |
| 2026-05-07 17:15 | 38.74812 | -9.15368 | 779 ft | 147 kts | 20° |
| 2026-05-07 17:15 | 38.75756 | -9.14864 | 581 ft | 148 kts | 20° |
| 2026-05-07 17:15 | 38.76683 | -9.14366 | 389 ft | 148 kts | 20° |
| 2026-05-07 17:16 | 38.77539 | -9.13919 | 368 ft | 85 kts | 21° |
| 2026-05-07 17:16 | 38.77941 | -9.13695 | 367 ft | 56 kts | 21° |
| 2026-05-07 17:16 | 38.78283 | -9.13516 | 365 ft | 51 kts | 23° |
| 2026-05-07 17:16 | 38.78523 | -9.13379 | 361 ft | 23 kts | 40° |
| 2026-05-07 17:17 | 38.78511 | -9.13246 | 361 ft | 10 kts | 144° |
| 2026-05-07 17:17 | 38.78448 | -9.13221 | 361 ft | 9 kts | 171° |
| 2026-05-07 17:17 | 38.78398 | -9.13225 | 363 ft | 0 kts | 198° |
| 2026-05-07 17:17 | 38.78396 | -9.13225 | 359 ft | 2 kts | 198° |
| 2026-05-07 17:18 | 38.78369 | -9.13237 | 359 ft | 4 kts | 199° |
| 2026-05-07 17:18 | 38.78345 | -9.13249 | 359 ft | 3 kts | 204° |
| 2026-05-07 17:18 | 38.78327 | -9.13260 | 363 ft | 3 kts | 204° |
| 2026-05-07 17:18 | 38.78313 | -9.13267 | 360 ft | 2 kts | 204° |
| 2026-05-07 17:19 | 38.78303 | -9.13273 | 359 ft | 2 kts | 204° |
| 2026-05-07 17:19 | 38.78249 | -9.13302 | 362 ft | 12 kts | 202° |
| 2026-05-07 17:19 | 38.78175 | -9.13340 | 358 ft | 9 kts | 201° |
| 2026-05-07 17:19 | 38.78119 | -9.13369 | 360 ft | 8 kts | 202° |
| 2026-05-07 17:20 | 38.78071 | -9.13394 | 362 ft | 7 kts | 202° |
| 2026-05-07 17:20 | 38.78028 | -9.13417 | 357 ft | 7 kts | 204° |
| 2026-05-07 17:20 | 38.77985 | -9.13440 | 363 ft | 6 kts | 204° |
| 2026-05-07 17:20 | 38.77940 | -9.13465 | 362 ft | 10 kts | 203° |
| 2026-05-07 17:21 | 38.77881 | -9.13498 | 356 ft | 9 kts | 203° |
| 2026-05-07 17:21 | 38.77816 | -9.13533 | 358 ft | 12 kts | 202° |
| 2026-05-07 17:21 | 38.77742 | -9.13572 | 362 ft | 11 kts | 202° |
| 2026-05-07 17:21 | 38.77675 | -9.13600 | 359 ft | 11 kts | 184° |
| 2026-05-07 17:22 | 38.77578 | -9.13578 | 355 ft | 15 kts | 167° |
| 2026-05-07 17:22 | 38.77468 | -9.13547 | 354 ft | 17 kts | 168° |
| 2026-05-07 17:22 | 38.77345 | -9.13514 | 347 ft | 17 kts | 168° |
| 2026-05-07 17:22 | 38.77287 | -9.13496 | 346 ft | 2 kts | 176° |
| 2026-05-07 17:23 | 38.77284 | -9.13484 | 346 ft | 1 kts | 100° |
| 2026-05-07 17:23 | 38.77309 | -9.13415 | 347 ft | 7 kts | 75° |
| 2026-05-07 17:23 | 38.77321 | -9.13346 | 337 ft | 9 kts | 78° |
| 2026-05-07 17:23 | 38.77318 | -9.13262 | 336 ft | 10 kts | 130° |
| 2026-05-07 17:24 | 38.77255 | -9.13240 | 337 ft | 9 kts | 169° |
| 2026-05-07 17:24 | 38.77199 | -9.13223 | 334 ft | 7 kts | 150° |
| 2026-05-07 17:24 | 38.77202 | -9.13167 | 334 ft | 6 kts | 76° |
| 2026-05-07 17:24 | 38.77204 | -9.13154 | 337 ft | 1 kts | 79° |
| 2026-05-07 17:25 | 38.77206 | -9.13143 | 335 ft | 1 kts | 78° |
| 2026-05-07 17:25 | 38.77206 | -9.13138 | 337 ft | 0 kts | 78° |